Time;durP1;ratioP1;P1;durP2;ratioP2;P2;SDS_P1;SDS_P2;PMS_P1;PMS_P2;Temp;Humidity;BMP_temperature;BMP_pressure;BME280_temperature;BME280_humidity;BME280_pressure;Samples;Min_cycle;Max_cycle;Signal;HPM_P1;HPM_P2
2022/02/08 00:00:56;;;;;;;41.65;9.10;;;10.00;99.90;;;10.33;95.13;102404.47;5115685;28;20432;-60
2022/02/08 00:03:25;;;;;;;38.28;9.10;;;10.10;99.90;;;10.13;95.46;102376.72;5115362;28;20039;-59
2022/02/08 00:06:07;;;;;;;37.90;8.27;;;10.10;99.90;;;10.38;95.76;102403.72;5115337;28;20461;-59
2022/02/08 00:08:35;;;;;;;38.53;8.40;;;10.10;99.90;;;10.20;95.32;102378.66;5115420;28;20059;-60
2022/02/08 00:11:05;;;;;;;28.75;7.30;;;10.10;99.90;;;10.32;96.19;102410.63;5097127;28;20044;-60
2022/02/08 00:13:33;;;;;;;31.52;8.88;;;10.10;99.90;;;10.36;96.03;102404.53;5115382;28;20073;-59
2022/02/08 00:16:02;;;;;;;38.13;8.68;;;10.10;99.90;;;10.42;95.82;102399.38;5115180;28;20046;-59
2022/02/08 00:18:31;;;;;;;35.83;8.02;;;10.10;99.90;;;10.32;95.87;102384.16;5115252;28;20047;-59
2022/02/08 00:21:01;;;;;;;28.90;7.28;;;10.20;99.90;;;10.47;95.94;102401.25;5115577;28;20054;-59
2022/02/08 00:23:29;;;;;;;30.70;8.27;;;10.20;99.90;;;10.42;96.08;102408.22;5115126;28;20039;-59
2022/02/08 00:25:58;;;;;;;30.90;7.65;;;10.20;99.90;;;10.48;96.42;102400.41;5115231;28;20855;-59
2022/02/08 00:28:27;;;;;;;32.33;7.97;;;10.20;99.90;;;10.55;96.12;102412.03;5114973;28;20043;-60
2022/02/08 00:30:55;;;;;;;36.65;8.23;;;10.30;99.90;;;10.54;96.17;102412.88;5114936;28;20540;-60
2022/02/08 00:33:24;;;;;;;27.42;7.35;;;10.30;99.90;;;10.64;96.13;102402.50;5115033;28;20051;-60
2022/02/08 00:35:52;;;;;;;26.88;7.05;;;10.30;99.90;;;10.67;96.11;102405.19;5115039;28;20063;-59
2022/02/08 00:38:24;;;;;;;27.67;7.93;;;10.40;99.90;;;10.63;96.40;102400.72;5114824;28;20043;-62
2022/02/08 00:40:57;;;;;;;22.37;7.60;;;10.30;99.90;;;10.66;96.57;102405.19;5114796;28;20290;-60
2022/02/08 00:43:30;;;;;;;32.13;8.48;;;10.40;99.90;;;10.78;96.62;102406.28;5096465;28;20048;-60
2022/02/08 00:46:02;;;;;;;31.38;7.78;;;10.50;99.90;;;10.64;96.66;102401.59;5096649;28;20073;-60
2022/02/08 00:48:38;;;;;;;28.27;7.55;;;10.40;99.90;;;10.65;96.54;102403.38;5096387;28;20063;-60
2022/02/08 00:51:08;;;;;;;31.17;8.15;;;10.40;99.90;;;10.59;96.96;102400.59;5096258;28;20074;-60
2022/02/08 00:53:38;;;;;;;33.75;8.23;;;10.40;99.90;;;10.71;97.12;102398.22;5096177;28;20044;-60
2022/02/08 00:56:07;;;;;;;27.77;8.52;;;10.50;99.90;;;10.72;96.97;102413.25;5096512;28;20454;-60
2022/02/08 00:58:38;;;;;;;30.98;8.45;;;10.50;99.90;;;10.59;98.15;102390.03;5096377;28;20036;-60
2022/02/08 01:01:07;;;;;;;33.53;8.45;;;10.40;99.90;;;10.66;98.70;102394.59;5096240;28;20078;-60
2022/02/08 01:03:35;;;;;;;30.08;8.65;;;10.40;99.90;;;10.63;98.81;102399.81;5114307;28;20047;-60
2022/02/08 01:06:06;;;;;;;32.03;8.70;;;10.40;99.90;;;10.64;99.19;102397.22;5096054;28;20049;-60
2022/02/08 01:08:40;;;;;;;30.35;9.30;;;10.40;99.90;;;10.50;99.27;102372.22;5095857;28;20051;-60
2022/02/08 01:11:11;;;;;;;32.05;9.43;;;10.40;99.90;;;10.55;99.68;102391.72;5096033;28;20492;-60
2022/02/08 01:13:41;;;;;;;33.92;10.00;;;10.30;99.90;;;10.50;99.79;102366.94;5114271;28;20074;-60
2022/02/08 01:16:10;;;;;;;37.22;9.48;;;10.30;99.90;;;10.52;100.00;102372.25;5114115;28;20531;-60
2022/02/08 01:18:42;;;;;;;32.40;9.10;;;10.30;99.90;;;10.56;100.00;102388.22;5113885;28;20074;-60
2022/02/08 01:21:11;;;;;;;30.80;8.50;;;10.30;99.90;;;10.53;100.00;102388.16;5095937;28;20048;-61
2022/02/08 01:23:41;;;;;;;40.72;10.15;;;10.40;99.90;;;10.65;100.00;102388.41;5095614;28;20084;-60
2022/02/08 01:26:14;;;;;;;35.25;10.57;;;10.40;99.90;;;10.55;100.00;102374.97;5095778;28;20051;-60
2022/02/08 01:28:49;;;;;;;32.28;8.45;;;10.40;99.90;;;10.59;100.00;102384.72;5113967;28;20051;-60
2022/02/08 01:31:19;;;;;;;35.28;9.35;;;10.40;99.90;;;10.48;100.00;102359.81;5113714;28;20050;-60
2022/02/08 01:36:36;;;;;;;35.72;10.45;;;10.40;99.90;;;10.65;100.00;102374.25;5113837;28;20054;-60
2022/02/08 01:39:15;;;;;;;30.65;10.95;;;10.40;99.90;;;10.64;100.00;102388.38;5095397;28;20047;-60
2022/02/08 01:44:39;;;;;;;25.55;10.85;;;10.40;99.90;;;10.69;100.00;102392.00;5113613;28;20484;-60
2022/02/08 01:47:25;;;;;;;27.55;11.23;;;10.50;99.90;;;10.54;100.00;102352.91;5095436;28;20089;-60
2022/02/08 01:49:59;;;;;;;32.40;11.57;;;10.50;99.90;;;10.75;100.00;102400.06;5095161;28;20046;-60
2022/02/08 01:52:28;;;;;;;29.42;10.32;;;10.50;99.90;;;10.74;100.00;102399.16;5095045;28;20065;-60
2022/02/08 01:55:00;;;;;;;27.27;10.65;;;10.50;99.90;;;10.59;100.00;102395.31;5095305;28;20138;-60
2022/02/08 01:57:29;;;;;;;30.13;10.38;;;10.50;99.90;;;10.68;100.00;102395.50;5095229;28;20508;-60
2022/02/08 01:59:58;;;;;;;27.23;10.82;;;10.40;99.90;;;10.52;100.00;102369.59;5095202;28;20050;-60
2022/02/08 02:02:29;;;;;;;32.67;9.73;;;10.50;99.90;;;10.74;100.00;102403.56;5094962;28;20467;-60
2022/02/08 02:04:57;;;;;;;37.58;10.65;;;10.50;99.90;;;10.73;100.00;102396.47;5095252;28;20047;-60
2022/02/08 02:07:26;;;;;;;27.90;9.88;;;10.50;99.90;;;10.72;100.00;102405.31;5113414;28;20508;-60
2022/02/08 02:09:55;;;;;;;28.85;8.70;;;10.50;99.90;;;10.73;100.00;102407.06;5094788;28;20043;-60
2022/02/08 02:12:28;;;;;;;29.80;9.63;;;10.50;99.90;;;10.77;100.00;102416.84;5094970;28;20031;-60
2022/02/08 02:15:01;;;;;;;30.20;8.85;;;10.50;99.90;;;10.78;100.00;102394.84;5113065;28;20126;-60
2022/02/08 02:17:29;;;;;;;31.48;8.52;;;10.50;99.90;;;10.77;100.00;102399.22;5094854;28;20142;-60
2022/02/08 02:19:58;;;;;;;32.03;9.73;;;10.50;99.90;;;10.76;100.00;102396.56;5113278;28;20035;-60
2022/02/08 02:22:26;;;;;;;35.03;9.00;;;10.50;99.90;;;10.76;100.00;102394.78;5094888;28;20059;-60
2022/02/08 02:24:56;;;;;;;28.77;8.88;;;10.50;99.90;;;10.72;100.00;102386.78;5113140;28;20504;-60
2022/02/08 02:27:25;;;;;;;43.55;8.75;;;10.50;99.90;;;10.61;100.00;102375.97;5094701;28;20040;-60
2022/02/08 02:29:53;;;;;;;32.53;8.55;;;10.50;99.90;;;10.79;100.00;102392.22;5094870;28;20094;-60
2022/02/08 02:32:22;;;;;;;28.35;8.43;;;10.60;99.90;;;10.83;100.00;102401.09;5094843;28;20055;-60
2022/02/08 02:34:52;;;;;;;32.40;8.60;;;10.60;99.90;;;10.89;100.00;102417.09;5094953;28;20085;-60
2022/02/08 02:37:21;;;;;;;31.58;9.18;;;10.60;99.90;;;10.84;99.86;102406.41;5094604;28;20092;-60
2022/02/08 02:39:51;;;;;;;25.07;8.17;;;10.60;99.90;;;10.84;99.94;102411.72;5094638;28;20047;-60
2022/02/08 02:42:21;;;;;;;27.95;8.63;;;10.60;99.90;;;10.92;99.72;102403.03;5112780;28;20489;-60
2022/02/08 02:44:49;;;;;;;27.90;8.23;;;10.60;99.90;;;10.92;99.37;102401.25;5112894;28;20044;-61
2022/02/08 02:47:22;;;;;;;31.80;8.43;;;10.70;99.90;;;10.98;99.37;102392.53;5113036;28;20085;-60
2022/02/08 02:49:51;;;;;;;29.40;8.65;;;10.70;99.90;;;10.93;99.34;102403.06;5094681;28;20044;-60
2022/02/08 02:52:21;;;;;;;24.45;8.77;;;10.70;99.90;;;10.94;98.94;102417.19;5094413;28;20424;-61
2022/02/08 02:54:55;;;;;;;34.47;8.02;;;10.70;99.90;;;11.05;98.76;102408.59;5094754;28;20044;-61
2022/02/08 02:57:27;;;;;;;29.40;8.48;;;10.80;99.90;;;10.93;98.37;102384.53;5094596;28;20075;-61
2022/02/08 03:00:04;;;;;;;25.98;8.10;;;10.80;99.90;;;10.74;99.17;102379.75;5094577;28;20157;-60
2022/02/08 03:02:42;;;;;;;22.45;8.27;;;10.70;99.90;;;10.95;98.90;102405.72;5094494;28;20059;-60
2022/02/08 03:05:24;;;;;;;25.63;8.43;;;10.70;99.90;;;10.84;99.11;102393.19;5096241;28;20123;-60
2022/02/08 03:19:00;;;;;;;36.10;8.35;;;10.70;99.90;;;10.90;98.58;102385.34;5116562;28;20052;-60
2022/02/08 03:21:28;;;;;;;26.02;7.18;;;10.70;99.90;;;10.89;98.15;102396.81;5098086;28;20044;-60
2022/02/08 03:23:57;;;;;;;27.40;7.22;;;10.70;99.90;;;10.85;98.05;102392.34;5116331;28;20508;-60
2022/02/08 03:26:25;;;;;;;30.23;8.15;;;10.70;99.90;;;10.73;97.81;102394.75;5098204;28;20043;-60
2022/02/08 03:29:03;;;;;;;31.95;7.93;;;10.60;99.90;;;10.87;97.07;102402.94;5098120;28;20079;-60
2022/02/08 03:31:35;;;;;;;29.45;7.70;;;10.60;99.90;;;11.02;96.69;102400.56;5098022;28;20063;-61
2022/02/08 03:34:04;;;;;;;29.83;7.55;;;10.70;99.90;;;10.76;95.62;102370.97;5097792;28;20054;-60
2022/02/08 03:36:37;;;;;;;31.50;7.30;;;10.70;99.90;;;10.77;95.31;102382.44;5097781;28;20043;-60
2022/02/08 03:39:14;;;;;;;29.48;8.75;;;10.70;99.90;;;11.00;95.00;102415.53;5116266;28;20052;-60
2022/02/08 03:41:53;;;;;;;29.05;7.60;;;10.70;99.90;;;11.07;94.75;102398.03;5098009;28;20067;-60
2022/02/08 03:44:31;;;;;;;30.98;7.82;;;10.70;99.90;;;11.08;93.97;102411.28;5115973;28;20484;-60
2022/02/08 03:47:05;;;;;;;28.60;7.28;;;10.80;99.90;;;11.09;94.09;102412.19;5115999;28;20484;-60
2022/02/08 03:49:36;;;;;;;23.40;7.65;;;10.80;99.90;;;11.02;93.38;102397.94;5097771;28;20047;-60
2022/02/08 03:52:07;;;;;;;21.70;6.65;;;10.80;99.90;;;11.09;92.84;102402.47;5097386;28;20044;-60
2022/02/08 03:54:41;;;;;;;29.98;7.85;;;10.90;99.90;;;11.05;92.64;102403.28;5097603;28;20427;-60
2022/02/08 03:57:10;;;;;;;27.00;7.25;;;10.80;99.90;;;10.96;92.48;102396.91;5115637;28;20066;-60
2022/02/08 03:59:43;;;;;;;25.13;7.75;;;10.80;99.90;;;10.93;92.27;102399.50;5097656;28;20134;-60
2022/02/08 04:02:34;;;;;;;32.60;7.10;;;10.80;99.90;;;11.06;92.06;102414.75;5097441;28;20054;-60
2022/02/08 04:05:10;;;;;;;27.42;7.15;;;10.80;99.90;;;11.09;91.77;102443.97;5115679;28;20409;-60
2022/02/08 04:07:43;;;;;;;21.30;6.78;;;10.80;99.90;;;11.12;91.39;102420.16;5115751;28;20392;-60
2022/02/08 04:10:19;;;;;;;28.67;6.95;;;10.90;99.90;;;11.12;91.42;102418.41;5115682;28;20051;-60
2022/02/08 04:12:56;;;;;;;22.70;6.85;;;10.90;99.90;;;11.13;91.00;102421.97;5115494;28;20050;-60
2022/02/08 04:15:39;;;;;;;23.08;6.38;;;10.90;99.90;;;10.96;91.45;102383.66;5115171;28;20419;-60
2022/02/08 04:32:23;;;;;;;23.73;6.82;;;11.00;99.90;;;11.22;91.13;102417.72;5115100;28;20048;-60
2022/02/08 04:35:01;;;;;;;26.23;7.47;;;11.00;99.90;;;11.22;91.13;102417.72;5114895;28;20057;-60
2022/02/08 04:37:54;;;;;;;23.42;6.65;;;11.00;99.90;;;11.19;91.33;102415.00;5115096;28;20079;-60
2022/02/08 04:43:24;;;;;;;21.88;6.10;;;10.90;99.90;;;11.18;90.43;102429.13;5114806;28;20090;-60
2022/02/08 04:45:57;;;;;;;27.02;7.15;;;10.90;99.90;;;11.19;90.34;102425.59;5115023;28;20043;-60
2022/02/08 04:51:18;;;;;;;28.42;6.82;;;10.90;99.90;;;11.08;90.05;102408.63;5114607;28;20400;-60
2022/02/08 04:53:53;;;;;;;25.98;7.07;;;10.90;99.90;;;11.16;89.75;102420.25;5114871;28;20057;-60
2022/02/08 04:56:32;;;;;;;22.75;6.25;;;10.90;99.90;;;11.19;89.46;102422.09;5114780;28;20057;-60
2022/02/08 04:59:14;;;;;;;28.25;6.97;;;10.90;99.90;;;11.22;89.01;102423.03;5114876;28;20056;-60
2022/02/08 05:01:59;;;;;;;24.65;6.13;;;10.90;99.90;;;11.27;88.45;102429.28;5114733;28;20454;-60
2022/02/08 05:43:46;;;;;;;24.02;6.40;;;11.00;99.90;;;11.25;87.76;102416.88;5113905;28;20051;-60
2022/02/08 05:49:06;;;;;;;29.23;6.72;;;11.10;99.90;;;11.32;87.33;102409.09;5113965;28;20055;-60
2022/02/08 05:51:57;;;;;;;28.13;7.43;;;11.10;99.90;;;11.18;87.32;102401.75;5113758;28;20548;-60
2022/02/08 05:54:27;;;;;;;21.05;6.63;;;11.00;99.90;;;11.29;87.40;102410.75;5113807;28;20059;-60
2022/02/08 05:56:55;;;;;;;26.30;6.53;;;11.00;99.90;;;11.24;87.54;102410.69;5113590;28;20100;-60
2022/02/08 05:59:24;;;;;;;20.65;6.32;;;11.00;99.90;;;11.07;87.46;102404.19;5113535;28;20698;-60
2022/02/08 06:01:52;;;;;;;27.73;7.10;;;11.00;99.90;;;11.20;87.14;102406.22;5113590;28;20083;-60
2022/02/08 06:04:37;;;;;;;22.45;7.07;;;11.00;99.90;;;11.24;87.22;102405.41;5094999;28;20471;-60
2022/02/08 06:07:06;;;;;;;31.15;7.00;;;11.00;99.90;;;11.19;87.06;102393.81;5095299;28;20051;-60
2022/02/08 06:09:36;;;;;;;22.38;6.53;;;11.00;99.90;;;11.00;87.30;102367.88;5113309;28;20666;-60
2022/02/08 06:12:06;;;;;;;17.73;6.25;;;10.90;99.90;;;11.22;87.07;102393.00;5113219;28;20439;-60
2022/02/08 06:14:36;;;;;;;29.75;7.50;;;11.00;99.90;;;11.18;87.10;102407.94;5094966;28;20416;-60
2022/02/08 06:17:04;;;;;;;21.70;6.47;;;11.00;99.90;;;11.24;86.77;102412.44;5094781;28;20504;-60
2022/02/08 06:19:33;;;;;;;15.85;5.47;;;11.00;99.90;;;11.14;86.47;102384.00;5113087;28;20036;-60
2022/02/08 06:22:01;;;;;;;18.17;6.07;;;11.00;99.90;;;11.23;86.37;102408.91;5113223;28;20052;-60
2022/02/08 06:24:30;;;;;;;20.75;5.63;;;11.00;99.90;;;11.22;86.24;102409.78;5094780;28;20048;-60
2022/02/08 06:27:00;;;;;;;18.60;5.68;;;11.00;99.90;;;11.26;86.24;102416.03;5113022;28;20378;-60
2022/02/08 06:29:28;;;;;;;21.53;5.67;;;11.00;99.90;;;11.24;86.05;102423.94;5112963;28;20116;-60
2022/02/08 06:31:57;;;;;;;18.05;6.28;;;11.00;99.90;;;11.25;85.73;102415.13;5112835;28;20297;-60
2022/02/08 06:34:30;;;;;;;21.00;5.90;;;11.00;99.90;;;11.29;85.57;102422.25;5094873;28;20048;-60
2022/02/08 06:37:04;;;;;;;19.23;6.18;;;11.00;99.90;;;11.25;85.48;102424.81;5094675;28;20498;-60
2022/02/08 06:39:35;;;;;;;16.23;5.70;;;11.00;99.90;;;11.27;85.21;102423.09;5115323;28;20048;-60
2022/02/08 06:42:08;;;;;;;21.20;6.15;;;11.00;99.90;;;11.33;84.78;102431.13;5117128;28;20039;-60
2022/02/08 06:44:38;;;;;;;22.33;6.43;;;11.10;99.90;;;11.26;84.90;102432.81;5117548;28;20051;-60
2022/02/08 06:47:07;;;;;;;22.00;6.20;;;11.00;99.90;;;11.28;85.02;102436.38;5117015;28;20040;-60
2022/02/08 06:49:36;;;;;;;16.25;5.28;;;11.10;99.90;;;11.33;84.64;102434.69;5117123;28;20039;-60
2022/02/08 06:52:05;;;;;;;18.30;5.85;;;11.10;99.90;;;11.18;84.71;102428.22;5098462;28;20047;-60
2022/02/08 06:54:33;;;;;;;19.20;6.07;;;11.00;99.90;;;11.27;84.73;102434.59;5098391;28;20036;-60
2022/02/08 06:57:02;;;;;;;19.90;6.18;;;11.00;99.90;;;11.26;84.65;102443.41;5117083;28;20040;-60
2022/02/08 06:59:37;;;;;;;16.27;5.60;;;11.00;99.90;;;10.43;84.66;102296.22;5116852;28;20118;-60
2022/02/08 07:02:07;;;;;;;23.02;5.80;;;11.00;99.90;;;11.10;84.87;102406.00;5098429;28;20120;-60
2022/02/08 07:04:35;;;;;;;18.52;5.65;;;11.00;99.90;;;11.25;84.47;102436.31;5116561;28;20059;-60
2022/02/08 07:07:04;;;;;;;24.77;5.80;;;11.00;99.90;;;11.30;84.57;102445.25;5116494;28;20114;-60
2022/02/08 07:09:32;;;;;;;21.15;5.70;;;11.00;99.90;;;11.27;84.53;102460.16;5116611;28;20492;-60
2022/02/08 07:12:01;;;;;;;22.80;6.20;;;11.00;99.90;;;11.30;84.48;102458.50;5116526;28;20096;-60
2022/02/08 07:14:32;;;;;;;21.83;6.30;;;11.00;99.90;;;11.39;84.14;102455.09;5098228;28;20060;-60
2022/02/08 07:17:02;;;;;;;20.98;6.00;;;11.10;99.90;;;11.33;84.19;102460.28;5116352;28;20120;-60
2022/02/08 07:19:30;;;;;;;22.85;6.80;;;11.10;99.90;;;11.37;84.19;102452.44;5116228;28;20512;-60
2022/02/08 07:21:59;;;;;;;18.02;6.30;;;11.10;99.90;;;11.22;84.31;102445.97;5098268;28;20082;-60
2022/02/08 07:24:28;;;;;;;20.27;6.03;;;11.00;99.90;;;11.28;84.42;102457.56;5094395;28;20052;-60
2022/02/08 07:26:56;;;;;;;20.33;6.32;;;11.00;99.90;;;11.23;84.25;102455.69;5095746;28;20048;-60
2022/02/08 07:29:27;;;;;;;17.75;6.07;;;11.00;99.90;;;11.01;84.59;102429.69;5095921;28;20076;-60
2022/02/08 07:31:59;;;;;;;17.08;5.63;;;11.00;99.90;;;11.19;84.68;102456.50;5094558;28;20048;-60
2022/02/08 07:34:36;;;;;;;18.85;6.15;;;11.00;99.90;;;11.19;84.52;102467.09;5095710;28;20048;-60
2022/02/08 07:37:11;;;;;;;19.02;5.25;;;11.00;99.90;;;11.15;84.79;102450.25;5095720;28;20032;-60
2022/02/08 07:39:44;;;;;;;19.45;5.75;;;11.00;99.90;;;11.23;84.87;102459.22;5094485;28;20048;-60
2022/02/08 07:42:12;;;;;;;17.92;5.70;;;11.00;99.90;;;11.19;85.00;102467.09;5095537;28;20059;-60
2022/02/08 07:44:41;;;;;;;15.25;5.05;;;10.90;99.90;;;11.20;85.33;102479.47;5095444;28;20127;-60
2022/02/08 07:47:17;;;;;;;22.77;6.05;;;10.90;99.90;;;11.28;85.31;102489.38;5094335;28;20050;-60
2022/02/08 07:49:46;;;;;;;16.35;5.75;;;11.00;99.90;;;11.29;85.05;102475.25;5095490;28;20113;-60
2022/02/08 07:52:15;;;;;;;21.05;6.20;;;11.00;99.90;;;11.27;85.25;102476.97;5094701;28;20040;-60
2022/02/08 07:54:44;;;;;;;19.45;6.72;;;11.00;99.90;;;11.31;85.25;102484.09;5095157;28;20093;-60
2022/02/08 07:57:13;;;;;;;19.70;6.18;;;11.10;99.90;;;11.38;84.99;102488.63;5095262;28;20141;-60
2022/02/08 07:59:41;;;;;;;20.20;6.38;;;11.10;99.90;;;11.23;85.20;102472.47;5095261;28;20123;-61
2022/02/08 08:02:09;;;;;;;21.40;7.18;;;11.10;99.90;;;11.39;85.15;102476.28;5095106;28;20044;-61
2022/02/08 08:04:38;;;;;;;17.73;7.10;;;11.10;99.90;;;11.29;85.03;102475.25;5095076;28;20048;-61
2022/02/08 08:07:08;;;;;;;17.50;6.78;;;11.10;99.90;;;11.26;85.17;102477.84;5095031;28;20417;-61
2022/02/08 08:09:39;;;;;;;20.60;7.03;;;11.00;99.90;;;11.21;84.88;102449.47;5095050;28;20566;-61
2022/02/08 08:12:13;;;;;;;22.83;6.15;;;11.10;99.90;;;11.32;84.51;102474.41;5095027;28;20281;-62
2022/02/08 08:14:41;;;;;;;16.63;5.95;;;11.10;99.90;;;11.42;84.70;102479.88;5094969;28;20040;-62
2022/02/08 08:17:37;;;;;;;16.25;6.03;;;11.10;99.90;;;11.47;84.36;102483.53;5094800;28;20066;-62
2022/02/08 08:20:04;;;;;;;19.42;5.70;;;11.20;99.90;;;11.48;84.07;102518.84;5094256;28;20062;-62
2022/02/08 08:22:34;;;;;;;22.45;6.40;;;11.20;99.90;;;11.37;84.17;102478.94;5094755;28;20040;-62
2022/02/08 08:25:03;;;;;;;14.00;5.13;;;11.20;99.90;;;11.41;84.11;102479.88;5093341;28;20074;-63
2022/02/08 08:27:33;;;;;;;18.75;5.28;;;11.10;99.90;;;11.44;83.68;102477.28;5094849;28;20067;-63
2022/02/08 08:30:02;;;;;;;16.60;5.60;;;11.20;99.90;;;11.46;83.69;102479.06;5094638;28;20089;-63
2022/02/08 08:32:30;;;;;;;21.73;6.22;;;11.20;99.90;;;11.58;83.22;102492.56;5093301;28;20048;-63
2022/02/08 08:34:59;;;;;;;15.60;5.00;;;11.30;99.90;;;11.46;83.17;102468.47;5094432;28;20580;-62
2022/02/08 08:37:29;;;;;;;;;;;11.30;99.90;;;11.68;83.13;102490.97;5095040;28;20051;-62
2022/02/08 08:40:04;;;;;;;19.13;5.43;;;11.40;99.90;;;12.03;81.95;102483.59;5094386;28;20400;-62
2022/02/08 08:42:41;;;;;;;15.63;6.05;;;11.70;99.90;;;12.14;81.12;102484.66;5094480;28;20382;-62
2022/02/08 08:50:56;;;;;;;14.68;5.55;;;12.30;99.90;;;12.93;77.96;102505.22;5094224;28;20044;-65
2022/02/08 08:53:25;;;;;;;14.65;5.20;;;12.60;99.90;;;13.33;76.37;102512.81;5094063;28;20043;-65
2022/02/08 08:55:56;;;;;;;19.30;5.53;;;13.00;99.90;;;13.58;75.38;102513.09;5093997;28;20079;-63
2022/02/08 08:58:25;;;;;;;16.08;5.43;;;13.30;99.90;;;13.70;73.78;102504.31;5094015;28;20051;-63
2022/02/08 09:00:55;;;;;;;14.55;6.47;;;13.50;99.90;;;13.83;72.99;102510.63;5093881;28;20036;-63
2022/02/08 09:03:23;;;;;;;14.07;5.40;;;13.60;99.90;;;13.93;72.50;102508.06;5093059;28;20040;-62
2022/02/08 09:05:54;;;;;;;19.63;5.85;;;13.70;99.90;;;14.00;71.89;102504.56;5093919;28;20036;-64
2022/02/08 09:08:28;;;;;;;21.90;6.50;;;13.80;99.90;;;14.21;71.47;102510.03;5094171;28;20040;-61
2022/02/08 09:11:07;;;;;;;22.35;6.00;;;14.00;99.90;;;14.26;70.28;102515.41;5092313;28;20047;-63
2022/02/08 09:13:41;;;;;;;14.38;6.18;;;14.00;99.90;;;14.40;70.58;102521.75;5093568;28;20535;-62
2022/02/08 09:16:22;;;;;;;17.70;5.70;;;14.10;99.90;;;14.43;69.68;102517.34;5093686;28;20040;-61
2022/02/08 09:24:38;;;;;;;14.57;4.50;;;14.00;99.90;;;13.87;70.10;102501.78;5099731;28;20047;-62
2022/02/08 09:30:03;;;;;;;15.75;5.40;;;13.50;99.90;;;13.62;71.17;102516.66;5030701;28;20091;-62
2022/02/08 09:32:42;;;;;;;14.32;5.22;;;13.40;99.90;;;13.30;72.00;102518.06;5107481;28;20090;-63
2022/02/08 09:35:14;;;;;;;14.52;5.53;;;13.10;99.90;;;13.01;72.60;102488.50;5113574;28;20097;-61
2022/02/08 09:37:44;;;;;;;14.18;5.28;;;13.00;99.90;;;13.18;73.03;102533.91;5114152;28;20075;-61
2022/02/08 09:40:18;;;;;;;12.20;4.93;;;12.90;99.90;;;13.05;73.10;102519.56;5113929;28;20055;-62
2022/02/08 09:42:50;;;;;;;14.13;5.90;;;12.90;99.90;;;12.88;73.73;102514.88;5095325;28;20290;-63
2022/02/08 09:45:20;;;;;;;18.05;5.05;;;12.70;99.90;;;12.87;74.04;102515.78;5113657;28;20062;-63
2022/02/08 09:47:56;;;;;;;15.45;5.70;;;12.60;99.90;;;12.91;74.29;102525.56;5113460;28;20369;-65
2022/02/08 09:50:29;;;;;;;18.17;5.25;;;12.60;99.90;;;12.89;74.50;102512.25;5113510;28;20107;-63
2022/02/08 09:53:01;;;;;;;14.50;5.30;;;12.60;99.90;;;12.79;74.48;102513.03;5113574;28;20074;-62
2022/02/08 09:55:36;;;;;;;16.00;4.93;;;12.60;99.90;;;12.82;74.38;102530.75;5113247;28;20044;-61
2022/02/08 09:58:06;;;;;;;12.85;4.90;;;12.60;99.90;;;12.81;74.46;102516.59;5113198;28;20043;-61
2022/02/08 10:00:37;;;;;;;13.48;4.72;;;12.60;99.90;;;12.74;74.58;102532.44;5113301;28;20089;-61
2022/02/08 10:03:06;;;;;;;;;;;12.50;99.90;;;12.70;74.44;102507.56;5113659;28;20071;-60
2022/02/08 10:05:46;;;;;;;21.13;5.90;;;12.50;99.90;;;12.73;74.64;102528.88;5111971;28;19920;-60
2022/02/08 10:08:15;;;;;;;17.83;6.05;;;12.50;99.90;;;12.66;74.75;102527.88;5113360;28;20062;-61
2022/02/08 10:10:44;;;;;;;13.20;5.43;;;12.50;99.90;;;12.62;74.49;102493.31;5113010;28;20409;-61
2022/02/08 10:13:43;;;;;;;14.45;5.20;;;12.40;99.90;;;12.49;74.71;102516.16;5112905;28;20040;-61
2022/02/08 10:21:48;;;;;;;13.73;4.75;;;12.40;99.90;;;12.51;75.08;102521.47;5112982;28;20071;-60
2022/02/08 10:24:21;;;;;;;15.00;5.57;;;12.30;99.90;;;12.50;75.40;102519.69;5112756;28;20128;-61
2022/02/08 10:27:04;;;;;;;15.68;4.97;;;12.30;99.90;;;12.44;74.99;102509.00;5113093;28;20047;-61
2022/02/08 10:29:41;;;;;;;17.42;5.18;;;12.30;99.90;;;12.51;75.44;102534.75;5112859;28;20040;-60
2022/02/08 10:37:35;;;;;;;14.20;5.15;;;12.30;99.90;;;12.48;75.38;102537.38;5112965;28;20079;-61
2022/02/08 10:38:06;;;;;;;13.93;5.38;;;12.30;99.90;;;12.47;75.60;102531.16;5112981;28;20665;-61
2022/02/08 10:40:38;;;;;;;14.00;5.35;;;12.20;99.90;;;12.36;75.38;102508.00;5112892;28;20443;-60
2022/02/08 10:43:09;;;;;;;15.73;5.38;;;12.20;99.90;;;12.36;75.58;102514.19;5112781;28;20040;-60
2022/02/08 10:45:41;;;;;;;14.05;4.78;;;12.20;99.90;;;12.42;75.39;102532.88;5112803;28;20493;-60
2022/02/08 10:48:11;;;;;;;17.20;4.65;;;12.20;99.90;;;12.44;75.59;102522.25;5112674;28;20048;-61
2022/02/08 10:50:47;;;;;;;19.20;5.20;;;12.20;99.90;;;12.38;75.16;102511.56;5113017;28;20047;-62
2022/02/08 10:53:17;;;;;;;14.75;4.97;;;12.20;99.90;;;12.49;75.22;102504.63;5112766;28;20044;-61
2022/02/08 10:55:50;;;;;;;16.70;4.77;;;12.20;99.90;;;11.87;74.82;102396.72;5112603;28;20446;-61
2022/02/08 10:58:26;;;;;;;14.48;5.30;;;12.30;99.90;;;12.63;75.21;102524.31;5094156;28;20317;-61
2022/02/08 11:01:03;;;;;;;13.20;4.78;;;12.30;99.90;;;12.62;74.63;102507.47;5094614;28;20435;-63
2022/02/08 11:03:38;;;;;;;11.38;5.15;;;12.40;99.90;;;12.62;74.22;102512.78;5112610;28;20047;-62
2022/02/08 11:06:23;;;;;;;16.50;4.95;;;12.40;99.90;;;12.76;74.13;102515.63;5112615;28;20035;-62
2022/02/08 11:09:07;;;;;;;17.20;5.05;;;12.50;99.90;;;11.86;73.76;102365.78;5112580;28;20113;-63
2022/02/08 11:11:50;;;;;;;16.67;4.68;;;12.50;99.90;;;12.69;74.15;102519.09;5112429;28;20039;-63
2022/02/08 11:14:33;;;;;;;16.10;5.13;;;12.40;99.90;;;12.68;73.97;102501.34;5112423;28;20040;-62
2022/02/08 11:20:06;;;;;;;;;;;12.50;99.90;;;12.68;73.58;102520.84;5113089;28;20112;-61
2022/02/08 11:22:48;;;;;;;15.35;5.18;;;12.50;99.90;;;12.86;74.07;102512.22;5112451;28;20335;-61
2022/02/08 11:25:24;;;;;;;20.33;5.88;;;12.60;99.90;;;12.77;73.84;102513.88;5112181;28;20060;-61
2022/02/08 11:28:05;;;;;;;17.33;5.05;;;12.60;99.90;;;12.81;73.27;102513.94;5116257;28;20114;-62
2022/02/08 11:30:45;;;;;;;15.30;5.22;;;12.60;99.90;;;12.81;73.51;102519.25;5116369;28;20043;-62
2022/02/08 11:39:29;;;;;;;17.75;4.80;;;12.60;99.90;;;12.99;73.17;102515.94;5116041;28;20040;-62
2022/02/08 11:51:03;;;;;;;16.27;4.57;;;12.60;99.90;;;12.93;73.15;102508.75;5074560;28;20071;-62
2022/02/08 11:53:36;;;;;;;11.85;5.00;;;12.70;99.90;;;13.00;72.60;102476.09;5115572;28;20044;-62
2022/02/08 11:59:13;;;;;;;15.68;4.93;;;12.90;99.90;;;13.24;72.00;102495.00;5095037;28;20051;-62
2022/02/08 12:02:01;;;;;;;14.77;5.32;;;13.00;99.90;;;13.48;71.67;102491.69;5115854;28;20404;-62
2022/02/08 12:04:39;;;;;;;12.35;4.65;;;13.20;99.90;;;13.72;70.87;102497.25;5115653;28;20044;-61
2022/02/08 12:07:17;;;;;;;15.07;5.10;;;13.40;99.90;;;13.93;70.44;102509.84;5115530;28;20039;-61
2022/02/08 12:09:52;;;;;;;13.38;5.30;;;13.70;99.90;;;13.90;69.44;102454.81;5115515;28;20047;-62
2022/02/08 12:12:51;;;;;;;10.90;5.05;;;13.80;99.90;;;14.27;69.11;102501.22;5115366;28;20051;-62
2022/02/08 12:35:25;;;;;;;12.27;4.97;;;13.70;99.90;;;13.70;69.09;102509.66;5089832;28;20051;-61
2022/02/08 12:55:34;;;;;;;15.68;5.20;;;13.20;99.90;;;13.38;71.51;102511.97;5051797;28;20053;-62
2022/02/08 13:01:34;;;;;;;14.13;5.05;;;13.10;99.90;;;13.28;71.48;102515.41;5011635;28;20049;-63
2022/02/08 13:04:14;;;;;;;17.17;5.57;;;13.20;99.90;;;13.42;71.56;102511.13;4995373;28;20115;-62
2022/02/08 13:32:55;;;;;;;16.00;5.75;;;12.90;99.90;;;13.16;72.34;102501.97;5113733;28;20100;-62
2022/02/08 14:05:57;;;;;;;14.98;5.78;;;13.30;99.90;;;13.88;70.43;102495.63;5113288;28;20052;-62
2022/02/08 14:08:47;;;;;;;16.25;5.45;;;13.60;99.90;;;13.94;69.65;102488.56;5112697;28;20557;-62